sensor_id;sensor_type;location;lat;lon;timestamp;P1;durP1;ratioP1;P2;durP2;ratioP2
28653;SDS011;24320;56.980;24.336;2023-06-26T00:00:54;6.07;;;2.97;;
28653;SDS011;24320;56.980;24.336;2023-06-26T00:03:21;6.95;;;3.53;;
28653;SDS011;24320;56.980;24.336;2023-06-26T00:05:49;3.80;;;2.78;;
28653;SDS011;24320;56.980;24.336;2023-06-26T00:08:17;4.55;;;3.20;;
28653;SDS011;24320;56.980;24.336;2023-06-26T00:10:44;4.25;;;2.88;;
28653;SDS011;24320;56.980;24.336;2023-06-26T00:13:11;7.75;;;3.78;;
28653;SDS011;24320;56.980;24.336;2023-06-26T00:15:46;9.35;;;3.63;;
28653;SDS011;24320;56.980;24.336;2023-06-26T00:18:13;5.65;;;3.13;;
28653;SDS011;24320;56.980;24.336;2023-06-26T00:20:40;4.95;;;3.38;;
28653;SDS011;24320;56.980;24.336;2023-06-26T00:23:07;6.00;;;2.95;;
28653;SDS011;24320;56.980;24.336;2023-06-26T00:25:34;7.75;;;3.28;;
28653;SDS011;24320;56.980;24.336;2023-06-26T00:28:01;4.20;;;2.83;;
28653;SDS011;24320;56.980;24.336;2023-06-26T00:30:28;6.28;;;2.60;;
28653;SDS011;24320;56.980;24.336;2023-06-26T00:32:55;6.90;;;2.95;;
28653;SDS011;24320;56.980;24.336;2023-06-26T00:35:22;5.88;;;3.10;;
28653;SDS011;24320;56.980;24.336;2023-06-26T00:37:49;4.85;;;3.20;;
28653;SDS011;24320;56.980;24.336;2023-06-26T00:40:16;4.50;;;3.13;;
28653;SDS011;24320;56.980;24.336;2023-06-26T00:42:43;6.63;;;3.40;;
28653;SDS011;24320;56.980;24.336;2023-06-26T00:45:10;6.25;;;3.60;;
28653;SDS011;24320;56.980;24.336;2023-06-26T00:47:37;6.30;;;3.13;;
28653;SDS011;24320;56.980;24.336;2023-06-26T00:50:05;5.82;;;3.33;;
28653;SDS011;24320;56.980;24.336;2023-06-26T00:52:33;5.03;;;3.25;;
28653;SDS011;24320;56.980;24.336;2023-06-26T00:55:00;5.25;;;3.20;;
28653;SDS011;24320;56.980;24.336;2023-06-26T00:57:27;8.07;;;3.50;;
28653;SDS011;24320;56.980;24.336;2023-06-26T00:59:56;9.05;;;3.30;;
28653;SDS011;24320;56.980;24.336;2023-06-26T01:02:24;5.75;;;3.45;;
28653;SDS011;24320;56.980;24.336;2023-06-26T01:04:51;5.47;;;3.38;;
28653;SDS011;24320;56.980;24.336;2023-06-26T01:07:19;7.47;;;3.40;;
28653;SDS011;24320;56.980;24.336;2023-06-26T01:09:47;13.75;;;6.07;;
28653;SDS011;24320;56.980;24.336;2023-06-26T01:12:15;10.65;;;4.78;;
28653;SDS011;24320;56.980;24.336;2023-06-26T01:14:42;20.63;;;6.68;;
28653;SDS011;24320;56.980;24.336;2023-06-26T01:17:09;7.55;;;4.05;;
28653;SDS011;24320;56.980;24.336;2023-06-26T01:19:42;6.47;;;3.33;;
28653;SDS011;24320;56.980;24.336;2023-06-26T01:22:18;6.10;;;3.00;;
28653;SDS011;24320;56.980;24.336;2023-06-26T01:24:53;5.03;;;1.83;;
28653;SDS011;24320;56.980;24.336;2023-06-26T01:27:34;3.28;;;1.88;;
28653;SDS011;24320;56.980;24.336;2023-06-26T01:30:02;3.42;;;1.80;;
28653;SDS011;24320;56.980;24.336;2023-06-26T01:32:31;3.63;;;2.35;;
28653;SDS011;24320;56.980;24.336;2023-06-26T01:34:59;3.53;;;1.70;;
28653;SDS011;24320;56.980;24.336;2023-06-26T01:37:26;2.60;;;1.48;;
28653;SDS011;24320;56.980;24.336;2023-06-26T01:39:53;2.17;;;1.30;;
28653;SDS011;24320;56.980;24.336;2023-06-26T01:42:20;1.63;;;1.20;;
28653;SDS011;24320;56.980;24.336;2023-06-26T01:44:47;4.40;;;1.30;;
28653;SDS011;24320;56.980;24.336;2023-06-26T01:47:16;2.10;;;1.42;;
28653;SDS011;24320;56.980;24.336;2023-06-26T01:49:47;2.42;;;1.50;;
28653;SDS011;24320;56.980;24.336;2023-06-26T01:58:02;1.73;;;1.33;;
28653;SDS011;24320;56.980;24.336;2023-06-26T02:00:29;2.00;;;1.40;;
28653;SDS011;24320;56.980;24.336;2023-06-26T02:02:58;1.88;;;1.38;;
28653;SDS011;24320;56.980;24.336;2023-06-26T02:05:25;2.53;;;1.60;;
28653;SDS011;24320;56.980;24.336;2023-06-26T02:07:52;3.25;;;1.58;;
28653;SDS011;24320;56.980;24.336;2023-06-26T02:10:19;1.45;;;1.25;;
28653;SDS011;24320;56.980;24.336;2023-06-26T02:12:46;2.15;;;1.58;;
28653;SDS011;24320;56.980;24.336;2023-06-26T02:15:13;4.55;;;1.63;;
28653;SDS011;24320;56.980;24.336;2023-06-26T02:17:40;1.77;;;1.40;;
28653;SDS011;24320;56.980;24.336;2023-06-26T02:20:08;2.88;;;1.88;;
28653;SDS011;24320;56.980;24.336;2023-06-26T02:22:36;2.50;;;1.80;;
28653;SDS011;24320;56.980;24.336;2023-06-26T02:25:03;3.80;;;2.08;;
28653;SDS011;24320;56.980;24.336;2023-06-26T02:27:31;2.10;;;1.65;;
28653;SDS011;24320;56.980;24.336;2023-06-26T02:29:58;3.05;;;1.92;;
28653;SDS011;24320;56.980;24.336;2023-06-26T02:32:25;3.33;;;2.25;;
28653;SDS011;24320;56.980;24.336;2023-06-26T02:34:52;3.72;;;1.80;;
28653;SDS011;24320;56.980;24.336;2023-06-26T02:37:19;2.55;;;1.80;;
28653;SDS011;24320;56.980;24.336;2023-06-26T02:39:50;2.40;;;2.03;;
28653;SDS011;24320;56.980;24.336;2023-06-26T02:42:17;1.83;;;1.60;;
28653;SDS011;24320;56.980;24.336;2023-06-26T02:44:44;8.38;;;2.10;;
28653;SDS011;24320;56.980;24.336;2023-06-26T02:47:11;2.35;;;1.75;;
28653;SDS011;24320;56.980;24.336;2023-06-26T02:49:38;2.17;;;1.65;;
28653;SDS011;24320;56.980;24.336;2023-06-26T02:52:05;5.20;;;1.90;;
28653;SDS011;24320;56.980;24.336;2023-06-26T02:54:32;3.38;;;2.17;;
28653;SDS011;24320;56.980;24.336;2023-06-26T02:56:59;2.40;;;1.70;;
28653;SDS011;24320;56.980;24.336;2023-06-26T02:59:26;2.25;;;1.77;;
28653;SDS011;24320;56.980;24.336;2023-06-26T03:01:53;2.78;;;1.88;;
28653;SDS011;24320;56.980;24.336;2023-06-26T03:04:20;3.17;;;2.05;;
28653;SDS011;24320;56.980;24.336;2023-06-26T03:06:48;3.40;;;2.20;;
28653;SDS011;24320;56.980;24.336;2023-06-26T03:09:15;5.45;;;2.45;;
28653;SDS011;24320;56.980;24.336;2023-06-26T03:11:43;3.95;;;2.00;;
28653;SDS011;24320;56.980;24.336;2023-06-26T03:14:10;3.83;;;2.47;;
28653;SDS011;24320;56.980;24.336;2023-06-26T03:16:37;4.40;;;2.45;;
28653;SDS011;24320;56.980;24.336;2023-06-26T03:19:04;4.05;;;2.63;;
28653;SDS011;24320;56.980;24.336;2023-06-26T03:21:32;3.25;;;2.28;;
28653;SDS011;24320;56.980;24.336;2023-06-26T03:23:59;3.58;;;2.20;;
28653;SDS011;24320;56.980;24.336;2023-06-26T03:26:26;2.97;;;2.10;;
28653;SDS011;24320;56.980;24.336;2023-06-26T03:28:54;4.40;;;2.45;;
28653;SDS011;24320;56.980;24.336;2023-06-26T03:31:21;4.53;;;1.98;;
28653;SDS011;24320;56.980;24.336;2023-06-26T03:33:49;3.72;;;2.20;;
28653;SDS011;24320;56.980;24.336;2023-06-26T03:36:16;3.05;;;2.20;;
28653;SDS011;24320;56.980;24.336;2023-06-26T03:38:43;4.55;;;2.00;;
28653;SDS011;24320;56.980;24.336;2023-06-26T03:41:10;5.35;;;2.30;;
28653;SDS011;24320;56.980;24.336;2023-06-26T03:43:37;2.45;;;2.00;;
28653;SDS011;24320;56.980;24.336;2023-06-26T03:46:04;3.42;;;2.45;;
28653;SDS011;24320;56.980;24.336;2023-06-26T03:48:31;4.03;;;1.90;;
28653;SDS011;24320;56.980;24.336;2023-06-26T03:50:58;2.08;;;1.88;;
28653;SDS011;24320;56.980;24.336;2023-06-26T03:53:25;3.05;;;1.90;;
28653;SDS011;24320;56.980;24.336;2023-06-26T03:55:52;2.13;;;1.88;;
28653;SDS011;24320;56.980;24.336;2023-06-26T03:58:19;2.22;;;2.03;;
28653;SDS011;24320;56.980;24.336;2023-06-26T04:00:46;2.20;;;1.95;;
28653;SDS011;24320;56.980;24.336;2023-06-26T04:03:13;2.50;;;1.92;;
28653;SDS011;24320;56.980;24.336;2023-06-26T04:05:40;2.80;;;1.73;;
28653;SDS011;24320;56.980;24.336;2023-06-26T04:08:08;2.30;;;1.70;;
28653;SDS011;24320;56.980;24.336;2023-06-26T04:10:35;3.00;;;2.10;;
28653;SDS011;24320;56.980;24.336;2023-06-26T04:13:02;3.38;;;1.83;;
28653;SDS011;24320;56.980;24.336;2023-06-26T04:15:29;1.80;;;1.70;;
28653;SDS011;24320;56.980;24.336;2023-06-26T04:17:56;2.58;;;2.08;;
28653;SDS011;24320;56.980;24.336;2023-06-26T04:20:23;2.33;;;1.67;;
28653;SDS011;24320;56.980;24.336;2023-06-26T04:22:51;2.47;;;1.90;;
28653;SDS011;24320;56.980;24.336;2023-06-26T04:25:18;3.80;;;1.85;;
28653;SDS011;24320;56.980;24.336;2023-06-26T04:27:45;2.45;;;1.85;;
28653;SDS011;24320;56.980;24.336;2023-06-26T04:30:12;2.42;;;1.80;;
28653;SDS011;24320;56.980;24.336;2023-06-26T04:32:39;2.88;;;1.90;;
28653;SDS011;24320;56.980;24.336;2023-06-26T04:35:06;4.28;;;1.75;;
28653;SDS011;24320;56.980;24.336;2023-06-26T04:37:34;2.30;;;1.65;;
28653;SDS011;24320;56.980;24.336;2023-06-26T04:40:01;2.70;;;1.80;;
28653;SDS011;24320;56.980;24.336;2023-06-26T04:42:30;2.60;;;1.95;;
28653;SDS011;24320;56.980;24.336;2023-06-26T04:44:57;2.05;;;1.85;;
28653;SDS011;24320;56.980;24.336;2023-06-26T04:47:24;2.75;;;1.80;;
28653;SDS011;24320;56.980;24.336;2023-06-26T04:49:51;3.22;;;2.03;;
28653;SDS011;24320;56.980;24.336;2023-06-26T04:52:18;2.55;;;2.03;;
28653;SDS011;24320;56.980;24.336;2023-06-26T04:54:45;2.60;;;2.38;;
28653;SDS011;24320;56.980;24.336;2023-06-26T04:57:12;3.25;;;2.50;;
28653;SDS011;24320;56.980;24.336;2023-06-26T04:59:41;2.58;;;2.15;;
28653;SDS011;24320;56.980;24.336;2023-06-26T05:02:08;2.53;;;2.25;;
28653;SDS011;24320;56.980;24.336;2023-06-26T05:04:35;4.15;;;2.30;;
28653;SDS011;24320;56.980;24.336;2023-06-26T05:07:02;5.03;;;3.40;;
28653;SDS011;24320;56.980;24.336;2023-06-26T05:09:29;5.03;;;3.35;;
28653;SDS011;24320;56.980;24.336;2023-06-26T05:11:56;3.40;;;3.10;;
28653;SDS011;24320;56.980;24.336;2023-06-26T05:14:23;5.13;;;3.08;;
28653;SDS011;24320;56.980;24.336;2023-06-26T05:16:50;3.55;;;2.75;;
28653;SDS011;24320;56.980;24.336;2023-06-26T05:19:17;4.38;;;3.22;;
28653;SDS011;24320;56.980;24.336;2023-06-26T05:21:45;3.92;;;3.22;;
28653;SDS011;24320;56.980;24.336;2023-06-26T05:24:13;5.03;;;3.30;;
28653;SDS011;24320;56.980;24.336;2023-06-26T05:26:42;4.38;;;3.13;;
28653;SDS011;24320;56.980;24.336;2023-06-26T05:29:09;4.35;;;3.40;;
28653;SDS011;24320;56.980;24.336;2023-06-26T05:31:37;3.90;;;3.28;;
28653;SDS011;24320;56.980;24.336;2023-06-26T05:34:07;3.40;;;3.10;;
28653;SDS011;24320;56.980;24.336;2023-06-26T05:36:38;3.33;;;2.97;;
28653;SDS011;24320;56.980;24.336;2023-06-26T05:39:06;7.32;;;3.15;;
28653;SDS011;24320;56.980;24.336;2023-06-26T05:41:33;3.75;;;3.17;;
28653;SDS011;24320;56.980;24.336;2023-06-26T05:44:00;4.68;;;2.97;;
28653;SDS011;24320;56.980;24.336;2023-06-26T05:46:27;3.55;;;2.35;;
28653;SDS011;24320;56.980;24.336;2023-06-26T05:48:54;4.78;;;2.45;;
28653;SDS011;24320;56.980;24.336;2023-06-26T05:51:21;3.25;;;2.38;;
28653;SDS011;24320;56.980;24.336;2023-06-26T05:53:49;2.38;;;2.17;;
28653;SDS011;24320;56.980;24.336;2023-06-26T05:56:16;2.58;;;2.33;;
28653;SDS011;24320;56.980;24.336;2023-06-26T05:58:45;3.08;;;2.10;;
28653;SDS011;24320;56.980;24.336;2023-06-26T06:01:12;4.15;;;2.25;;
28653;SDS011;24320;56.980;24.336;2023-06-26T06:03:39;2.00;;;1.80;;
28653;SDS011;24320;56.980;24.336;2023-06-26T06:06:07;3.65;;;1.80;;
28653;SDS011;24320;56.980;24.336;2023-06-26T06:08:34;2.38;;;2.13;;
28653;SDS011;24320;56.980;24.336;2023-06-26T06:11:01;1.98;;;1.40;;
28653;SDS011;24320;56.980;24.336;2023-06-26T06:16:12;2.03;;;1.52;;
28653;SDS011;24320;56.980;24.336;2023-06-26T06:18:39;2.40;;;1.52;;
28653;SDS011;24320;56.980;24.336;2023-06-26T06:21:06;2.22;;;1.58;;
28653;SDS011;24320;56.980;24.336;2023-06-26T06:23:33;2.30;;;1.50;;
28653;SDS011;24320;56.980;24.336;2023-06-26T06:26:00;5.07;;;1.50;;
28653;SDS011;24320;56.980;24.336;2023-06-26T06:28:27;2.17;;;1.40;;
28653;SDS011;24320;56.980;24.336;2023-06-26T06:30:54;3.25;;;1.40;;
28653;SDS011;24320;56.980;24.336;2023-06-26T06:33:21;1.40;;;1.30;;
28653;SDS011;24320;56.980;24.336;2023-06-26T06:35:48;1.95;;;1.48;;
28653;SDS011;24320;56.980;24.336;2023-06-26T06:38:15;4.28;;;1.65;;
28653;SDS011;24320;56.980;24.336;2023-06-26T06:40:42;4.35;;;1.20;;
28653;SDS011;24320;56.980;24.336;2023-06-26T06:43:09;2.42;;;1.30;;
28653;SDS011;24320;56.980;24.336;2023-06-26T06:45:36;2.58;;;1.40;;
28653;SDS011;24320;56.980;24.336;2023-06-26T06:48:04;3.30;;;1.48;;
28653;SDS011;24320;56.980;24.336;2023-06-26T06:50:32;1.60;;;1.30;;
28653;SDS011;24320;56.980;24.336;2023-06-26T06:52:59;2.28;;;1.38;;
28653;SDS011;24320;56.980;24.336;2023-06-26T06:55:26;4.55;;;1.33;;
28653;SDS011;24320;56.980;24.336;2023-06-26T06:57:53;3.70;;;1.50;;
28653;SDS011;24320;56.980;24.336;2023-06-26T07:00:20;1.52;;;1.30;;
28653;SDS011;24320;56.980;24.336;2023-06-26T07:02:47;1.83;;;1.35;;
28653;SDS011;24320;56.980;24.336;2023-06-26T07:05:14;2.65;;;1.15;;
28653;SDS011;24320;56.980;24.336;2023-06-26T07:07:42;1.63;;;1.33;;
28653;SDS011;24320;56.980;24.336;2023-06-26T07:10:11;2.38;;;1.40;;
28653;SDS011;24320;56.980;24.336;2023-06-26T07:12:40;1.20;;;1.10;;
28653;SDS011;24320;56.980;24.336;2023-06-26T07:15:07;1.83;;;1.30;;
28653;SDS011;24320;56.980;24.336;2023-06-26T07:17:35;1.58;;;1.10;;
28653;SDS011;24320;56.980;24.336;2023-06-26T07:20:09;3.67;;;1.10;;
28653;SDS011;24320;56.980;24.336;2023-06-26T07:22:41;2.42;;;1.20;;
28653;SDS011;24320;56.980;24.336;2023-06-26T07:25:11;4.82;;;1.38;;
28653;SDS011;24320;56.980;24.336;2023-06-26T07:27:39;1.17;;;1.02;;
28653;SDS011;24320;56.980;24.336;2023-06-26T07:30:07;1.20;;;1.10;;
28653;SDS011;24320;56.980;24.336;2023-06-26T07:32:37;3.75;;;1.20;;
28653;SDS011;24320;56.980;24.336;2023-06-26T07:35:09;1.02;;;0.90;;
28653;SDS011;24320;56.980;24.336;2023-06-26T07:37:36;1.42;;;1.05;;
28653;SDS011;24320;56.980;24.336;2023-06-26T07:40:03;1.00;;;0.90;;
28653;SDS011;24320;56.980;24.336;2023-06-26T07:42:30;1.20;;;1.10;;
28653;SDS011;24320;56.980;24.336;2023-06-26T07:44:57;1.30;;;1.08;;
28653;SDS011;24320;56.980;24.336;2023-06-26T07:47:24;2.10;;;1.38;;
28653;SDS011;24320;56.980;24.336;2023-06-26T07:49:51;0.90;;;0.88;;
28653;SDS011;24320;56.980;24.336;2023-06-26T07:52:18;2.22;;;1.30;;
28653;SDS011;24320;56.980;24.336;2023-06-26T07:54:45;2.80;;;1.13;;
28653;SDS011;24320;56.980;24.336;2023-06-26T07:57:12;1.42;;;1.10;;
28653;SDS011;24320;56.980;24.336;2023-06-26T07:59:39;1.40;;;1.00;;
28653;SDS011;24320;56.980;24.336;2023-06-26T08:02:07;1.80;;;1.13;;
28653;SDS011;24320;56.980;24.336;2023-06-26T08:04:34;1.17;;;1.08;;
28653;SDS011;24320;56.980;24.336;2023-06-26T08:07:01;1.63;;;1.20;;
28653;SDS011;24320;56.980;24.336;2023-06-26T08:09:30;3.17;;;1.20;;
28653;SDS011;24320;56.980;24.336;2023-06-26T08:11:57;1.27;;;1.10;;
28653;SDS011;24320;56.980;24.336;2023-06-26T08:14:25;1.50;;;1.30;;
28653;SDS011;24320;56.980;24.336;2023-06-26T08:16:52;1.30;;;1.20;;
28653;SDS011;24320;56.980;24.336;2023-06-26T08:19:19;2.92;;;1.90;;
28653;SDS011;24320;56.980;24.336;2023-06-26T08:21:46;2.92;;;1.40;;
28653;SDS011;24320;56.980;24.336;2023-06-26T08:24:14;2.67;;;1.50;;
28653;SDS011;24320;56.980;24.336;2023-06-26T08:26:45;3.80;;;1.50;;
28653;SDS011;24320;56.980;24.336;2023-06-26T08:29:13;1.50;;;1.40;;
28653;SDS011;24320;56.980;24.336;2023-06-26T08:31:41;1.95;;;1.75;;
28653;SDS011;24320;56.980;24.336;2023-06-26T08:34:09;2.72;;;1.85;;
28653;SDS011;24320;56.980;24.336;2023-06-26T08:36:36;2.08;;;1.67;;
28653;SDS011;24320;56.980;24.336;2023-06-26T08:39:10;1.60;;;1.50;;
28653;SDS011;24320;56.980;24.336;2023-06-26T08:41:37;3.70;;;1.60;;
28653;SDS011;24320;56.980;24.336;2023-06-26T08:44:04;1.75;;;1.60;;
28653;SDS011;24320;56.980;24.336;2023-06-26T08:46:31;3.70;;;1.70;;
28653;SDS011;24320;56.980;24.336;2023-06-26T08:49:12;2.22;;;1.75;;
28653;SDS011;24320;56.980;24.336;2023-06-26T08:51:45;1.83;;;1.60;;
28653;SDS011;24320;56.980;24.336;2023-06-26T08:54:18;3.38;;;1.73;;
28653;SDS011;24320;56.980;24.336;2023-06-26T08:56:55;2.05;;;1.63;;
28653;SDS011;24320;56.980;24.336;2023-06-26T08:59:24;1.95;;;1.38;;
28653;SDS011;24320;56.980;24.336;2023-06-26T09:01:51;3.78;;;1.90;;
28653;SDS011;24320;56.980;24.336;2023-06-26T09:04:18;1.65;;;1.55;;
28653;SDS011;24320;56.980;24.336;2023-06-26T09:06:45;2.25;;;1.65;;
28653;SDS011;24320;56.980;24.336;2023-06-26T09:09:13;3.90;;;1.80;;
28653;SDS011;24320;56.980;24.336;2023-06-26T09:11:40;2.40;;;1.83;;
28653;SDS011;24320;56.980;24.336;2023-06-26T09:14:08;1.95;;;1.73;;
28653;SDS011;24320;56.980;24.336;2023-06-26T09:16:40;3.80;;;1.80;;
28653;SDS011;24320;56.980;24.336;2023-06-26T09:19:10;1.70;;;1.60;;
28653;SDS011;24320;56.980;24.336;2023-06-26T09:21:39;3.00;;;1.60;;
28653;SDS011;24320;56.980;24.336;2023-06-26T09:24:07;1.63;;;1.50;;
28653;SDS011;24320;56.980;24.336;2023-06-26T09:26:36;1.80;;;1.50;;
28653;SDS011;24320;56.980;24.336;2023-06-26T09:29:05;1.92;;;1.67;;
28653;SDS011;24320;56.980;24.336;2023-06-26T09:31:36;2.03;;;1.83;;
28653;SDS011;24320;56.980;24.336;2023-06-26T09:34:07;2.00;;;1.80;;
28653;SDS011;24320;56.980;24.336;2023-06-26T09:36:35;2.15;;;1.90;;
28653;SDS011;24320;56.980;24.336;2023-06-26T09:39:06;2.30;;;1.60;;
28653;SDS011;24320;56.980;24.336;2023-06-26T09:41:40;3.50;;;1.50;;
28653;SDS011;24320;56.980;24.336;2023-06-26T09:44:13;2.00;;;1.73;;
28653;SDS011;24320;56.980;24.336;2023-06-26T09:46:41;1.70;;;1.60;;
28653;SDS011;24320;56.980;24.336;2023-06-26T09:49:11;1.73;;;1.55;;
28653;SDS011;24320;56.980;24.336;2023-06-26T09:51:39;3.45;;;1.70;;
28653;SDS011;24320;56.980;24.336;2023-06-26T09:54:08;2.97;;;1.77;;
28653;SDS011;24320;56.980;24.336;2023-06-26T09:56:36;1.50;;;1.40;;
28653;SDS011;24320;56.980;24.336;2023-06-26T09:59:04;1.80;;;1.63;;
28653;SDS011;24320;56.980;24.336;2023-06-26T10:01:32;2.13;;;1.70;;
28653;SDS011;24320;56.980;24.336;2023-06-26T10:04:00;1.67;;;1.58;;
28653;SDS011;24320;56.980;24.336;2023-06-26T10:06:36;1.73;;;1.52;;
28653;SDS011;24320;56.980;24.336;2023-06-26T10:09:05;3.28;;;1.67;;
28653;SDS011;24320;56.980;24.336;2023-06-26T10:14:35;2.90;;;1.58;;
28653;SDS011;24320;56.980;24.336;2023-06-26T10:17:05;2.33;;;1.50;;
28653;SDS011;24320;56.980;24.336;2023-06-26T10:19:36;2.55;;;2.00;;
28653;SDS011;24320;56.980;24.336;2023-06-26T10:22:05;1.70;;;1.60;;
28653;SDS011;24320;56.980;24.336;2023-06-26T10:24:35;2.13;;;1.60;;
28653;SDS011;24320;56.980;24.336;2023-06-26T10:27:21;5.55;;;1.90;;
28653;SDS011;24320;56.980;24.336;2023-06-26T10:29:55;3.58;;;1.90;;
28653;SDS011;24320;56.980;24.336;2023-06-26T10:32:25;2.53;;;1.60;;
28653;SDS011;24320;56.980;24.336;2023-06-26T10:34:54;3.90;;;1.92;;
28653;SDS011;24320;56.980;24.336;2023-06-26T10:38:05;2.08;;;1.88;;
28653;SDS011;24320;56.980;24.336;2023-06-26T10:40:21;2.63;;;2.00;;
28653;SDS011;24320;56.980;24.336;2023-06-26T10:42:51;2.70;;;2.20;;
28653;SDS011;24320;56.980;24.336;2023-06-26T10:45:34;4.75;;;2.03;;
28653;SDS011;24320;56.980;24.336;2023-06-26T10:48:02;9.93;;;2.25;;
28653;SDS011;24320;56.980;24.336;2023-06-26T10:50:31;2.67;;;2.10;;
28653;SDS011;24320;56.980;24.336;2023-06-26T10:55:34;2.28;;;1.90;;
28653;SDS011;24320;56.980;24.336;2023-06-26T10:58:02;2.50;;;2.28;;
28653;SDS011;24320;56.980;24.336;2023-06-26T11:00:29;2.70;;;2.10;;
28653;SDS011;24320;56.980;24.336;2023-06-26T11:02:57;2.38;;;2.13;;
28653;SDS011;24320;56.980;24.336;2023-06-26T11:05:28;3.05;;;2.50;;
28653;SDS011;24320;56.980;24.336;2023-06-26T12:08:36;2.25;;;2.05;;
28653;SDS011;24320;56.980;24.336;2023-06-26T12:11:04;3.17;;;2.15;;
28653;SDS011;24320;56.980;24.336;2023-06-26T12:13:32;2.72;;;2.22;;
28653;SDS011;24320;56.980;24.336;2023-06-26T12:16:00;2.40;;;2.20;;
28653;SDS011;24320;56.980;24.336;2023-06-26T12:18:33;2.92;;;2.30;;
28653;SDS011;24320;56.980;24.336;2023-06-26T12:21:03;3.80;;;1.88;;
28653;SDS011;24320;56.980;24.336;2023-06-26T12:23:33;3.63;;;2.20;;
28653;SDS011;24320;56.980;24.336;2023-06-26T12:26:18;2.15;;;1.95;;
28653;SDS011;24320;56.980;24.336;2023-06-26T12:28:47;5.53;;;2.20;;
28653;SDS011;24320;56.980;24.336;2023-06-26T12:31:19;4.05;;;2.60;;
28653;SDS011;24320;56.980;24.336;2023-06-26T12:33:48;2.25;;;1.92;;
28653;SDS011;24320;56.980;24.336;2023-06-26T12:36:15;2.45;;;2.25;;
28653;SDS011;24320;56.980;24.336;2023-06-26T12:38:42;2.40;;;2.20;;
28653;SDS011;24320;56.980;24.336;2023-06-26T12:41:12;3.50;;;2.30;;
28653;SDS011;24320;56.980;24.336;2023-06-26T12:43:43;2.38;;;2.17;;
28653;SDS011;24320;56.980;24.336;2023-06-26T12:46:10;3.50;;;2.40;;
28653;SDS011;24320;56.980;24.336;2023-06-26T12:48:43;3.60;;;2.38;;
28653;SDS011;24320;56.980;24.336;2023-06-26T12:51:13;2.40;;;2.20;;
28653;SDS011;24320;56.980;24.336;2023-06-26T12:53:41;3.83;;;2.35;;
28653;SDS011;24320;56.980;24.336;2023-06-26T12:56:09;2.47;;;1.90;;
28653;SDS011;24320;56.980;24.336;2023-06-26T12:58:37;2.30;;;2.10;;
28653;SDS011;24320;56.980;24.336;2023-06-26T13:01:05;2.40;;;2.15;;
28653;SDS011;24320;56.980;24.336;2023-06-26T13:03:41;3.10;;;2.40;;
28653;SDS011;24320;56.980;24.336;2023-06-26T13:06:08;2.92;;;2.30;;
28653;SDS011;24320;56.980;24.336;2023-06-26T13:08:35;5.72;;;2.70;;
28653;SDS011;24320;56.980;24.336;2023-06-26T13:11:03;4.85;;;3.78;;
28653;SDS011;24320;56.980;24.336;2023-06-26T13:13:30;5.95;;;3.80;;
28653;SDS011;24320;56.980;24.336;2023-06-26T13:15:58;4.55;;;2.95;;
28653;SDS011;24320;56.980;24.336;2023-06-26T13:18:24;3.20;;;2.88;;
28653;SDS011;24320;56.980;24.336;2023-06-26T13:20:52;3.80;;;2.33;;
28653;SDS011;24320;56.980;24.336;2023-06-26T13:23:19;3.58;;;2.80;;
28653;SDS011;24320;56.980;24.336;2023-06-26T13:25:46;4.45;;;2.72;;
28653;SDS011;24320;56.980;24.336;2023-06-26T13:28:13;3.30;;;2.30;;
28653;SDS011;24320;56.980;24.336;2023-06-26T13:30:45;4.40;;;2.85;;
28653;SDS011;24320;56.980;24.336;2023-06-26T13:33:13;2.50;;;2.30;;
28653;SDS011;24320;56.980;24.336;2023-06-26T13:35:40;3.92;;;2.53;;
28653;SDS011;24320;56.980;24.336;2023-06-26T13:38:07;2.55;;;2.10;;
28653;SDS011;24320;56.980;24.336;2023-06-26T13:40:34;2.70;;;2.50;;
28653;SDS011;24320;56.980;24.336;2023-06-26T13:43:01;5.03;;;2.90;;
28653;SDS011;24320;56.980;24.336;2023-06-26T13:45:30;3.28;;;2.70;;
28653;SDS011;24320;56.980;24.336;2023-06-26T13:47:57;4.72;;;2.40;;
28653;SDS011;24320;56.980;24.336;2023-06-26T13:50:24;2.92;;;2.22;;
28653;SDS011;24320;56.980;24.336;2023-06-26T13:52:58;3.72;;;2.70;;
28653;SDS011;24320;56.980;24.336;2023-06-26T13:55:25;2.67;;;2.25;;
28653;SDS011;24320;56.980;24.336;2023-06-26T13:57:52;4.82;;;2.28;;
28653;SDS011;24320;56.980;24.336;2023-06-26T14:00:19;6.05;;;4.25;;
28653;SDS011;24320;56.980;24.336;2023-06-26T14:02:48;3.15;;;2.42;;
28653;SDS011;24320;56.980;24.336;2023-06-26T14:05:15;4.18;;;2.40;;
28653;SDS011;24320;56.980;24.336;2023-06-26T14:07:58;4.07;;;2.35;;
28653;SDS011;24320;56.980;24.336;2023-06-26T14:10:25;5.13;;;2.85;;
28653;SDS011;24320;56.980;24.336;2023-06-26T14:12:52;3.95;;;2.42;;
28653;SDS011;24320;56.980;24.336;2023-06-26T14:15:19;2.60;;;2.40;;
28653;SDS011;24320;56.980;24.336;2023-06-26T14:17:46;3.65;;;2.30;;
28653;SDS011;24320;56.980;24.336;2023-06-26T14:20:14;3.28;;;2.33;;
28653;SDS011;24320;56.980;24.336;2023-06-26T14:22:43;4.40;;;2.72;;
28653;SDS011;24320;56.980;24.336;2023-06-26T14:25:11;2.90;;;2.10;;
28653;SDS011;24320;56.980;24.336;2023-06-26T14:27:40;6.18;;;2.33;;
28653;SDS011;24320;56.980;24.336;2023-06-26T14:30:07;3.97;;;2.80;;
28653;SDS011;24320;56.980;24.336;2023-06-26T14:32:35;2.58;;;2.28;;
28653;SDS011;24320;56.980;24.336;2023-06-26T14:35:02;6.05;;;2.30;;
28653;SDS011;24320;56.980;24.336;2023-06-26T14:37:30;3.85;;;2.50;;
28653;SDS011;24320;56.980;24.336;2023-06-26T14:39:57;3.08;;;2.20;;
28653;SDS011;24320;56.980;24.336;2023-06-26T14:42:28;3.13;;;2.30;;
28653;SDS011;24320;56.980;24.336;2023-06-26T14:44:55;2.78;;;2.35;;
28653;SDS011;24320;56.980;24.336;2023-06-26T14:47:23;4.38;;;2.65;;
28653;SDS011;24320;56.980;24.336;2023-06-26T14:49:50;4.03;;;2.80;;
28653;SDS011;24320;56.980;24.336;2023-06-26T14:52:17;4.22;;;2.35;;
28653;SDS011;24320;56.980;24.336;2023-06-26T14:54:44;4.20;;;2.85;;
28653;SDS011;24320;56.980;24.336;2023-06-26T14:57:11;2.97;;;2.53;;
28653;SDS011;24320;56.980;24.336;2023-06-26T14:59:38;4.45;;;2.60;;
28653;SDS011;24320;56.980;24.336;2023-06-26T15:02:05;4.57;;;2.72;;
28653;SDS011;24320;56.980;24.336;2023-06-26T15:04:32;3.42;;;2.70;;
28653;SDS011;24320;56.980;24.336;2023-06-26T15:07:00;3.35;;;2.50;;
28653;SDS011;24320;56.980;24.336;2023-06-26T15:09:27;5.60;;;3.15;;
28653;SDS011;24320;56.980;24.336;2023-06-26T15:11:54;3.58;;;3.00;;
28653;SDS011;24320;56.980;24.336;2023-06-26T15:14:21;3.85;;;2.72;;
28653;SDS011;24320;56.980;24.336;2023-06-26T15:16:48;4.10;;;2.60;;
28653;SDS011;24320;56.980;24.336;2023-06-26T15:19:15;9.90;;;2.90;;
28653;SDS011;24320;56.980;24.336;2023-06-26T15:21:42;4.82;;;2.90;;
28653;SDS011;24320;56.980;24.336;2023-06-26T15:24:09;2.78;;;2.50;;
28653;SDS011;24320;56.980;24.336;2023-06-26T15:26:37;4.13;;;2.80;;
28653;SDS011;24320;56.980;24.336;2023-06-26T15:29:03;4.60;;;2.70;;
28653;SDS011;24320;56.980;24.336;2023-06-26T15:31:31;3.55;;;2.45;;
28653;SDS011;24320;56.980;24.336;2023-06-26T15:33:58;5.85;;;2.65;;
28653;SDS011;24320;56.980;24.336;2023-06-26T15:36:25;3.40;;;2.45;;
28653;SDS011;24320;56.980;24.336;2023-06-26T15:38:53;2.78;;;2.33;;
28653;SDS011;24320;56.980;24.336;2023-06-26T15:41:20;5.00;;;2.80;;
28653;SDS011;24320;56.980;24.336;2023-06-26T15:43:47;2.70;;;2.40;;
28653;SDS011;24320;56.980;24.336;2023-06-26T15:46:14;3.75;;;2.40;;
28653;SDS011;24320;56.980;24.336;2023-06-26T15:48:42;3.88;;;2.70;;
28653;SDS011;24320;56.980;24.336;2023-06-26T15:51:10;3.40;;;2.50;;
28653;SDS011;24320;56.980;24.336;2023-06-26T15:53:40;3.17;;;2.50;;